Decoded Metar for EBFN (KOKSIJDE in BELGIUM) (IATA:N/A) | Meteo·Mobile Aviation Weather
aviador You're here:

EBFN Decoded Metar

KOKSIJDE in BELGIUM
Report Time2018-09-19 13:55:00
UTC Time2018-09-19 14:26:19
Flight Rules vfr VFR
Wind230° at 19 kt
W.Decomp.*RWY 29: 9.5 kt HW 16.5 kt LCW
W.Rank230° ranks 1
Current wind is above 230° avg. (9.4)
Visibility9999 m
Phenomena:N/A
Clouds:Broken 033 Hf
Expected CloudBase > 3,200 ft AGL from Temp-Dew spread
Ceiling3,300 ft
Temp22°C (ISA +7)
Dew Point14°C (61% RH)
AAT16.5°C
QNH1016 hPa
Density Alt965 ft
Elevation30 ft
Report Wrong Elevation
Raw Report
EBFN 191355Z 23019KT 9999 BKN033 22/14 Q1016 BLU BLU=

Extra information for EBFN:More info

Metar Taf Metar & Taf Last 4 Metars F.Rules Stats Wind Profile Meteogram Temp Stats Airport Information Weather charts Add Link Nearby VenuesMetar ALERT Operation Metar Decoded Social comments